createdAt,value
2019-01-28T00:01:19.653Z,21.80
2019-01-28T00:04:23.549Z,20.67
2019-01-28T00:07:27.089Z,21.37
2019-01-28T00:10:30.645Z,20.07
2019-01-28T00:13:34.284Z,19.83
2019-01-28T00:16:37.954Z,20.17
2019-01-28T00:19:41.522Z,19.30
2019-01-28T00:22:45.089Z,18.20
2019-01-28T00:25:48.916Z,18.50
2019-01-28T00:28:52.498Z,17.47
2019-01-28T00:31:56.151Z,17.20
2019-01-28T00:34:59.720Z,16.70
2019-01-28T00:38:03.354Z,16.27
2019-01-28T00:41:06.924Z,15.67
2019-01-28T00:44:10.482Z,16.23
2019-01-28T00:47:14.061Z,16.73
2019-01-28T00:50:17.707Z,14.70
2019-01-28T00:53:21.262Z,14.50
2019-01-28T00:56:24.906Z,15.00
2019-01-28T00:59:28.462Z,14.00
2019-01-28T01:02:32.110Z,14.07
2019-01-28T01:05:35.768Z,13.53
2019-01-28T01:08:39.344Z,12.43
2019-01-28T01:11:42.911Z,12.67
2019-01-28T01:14:46.498Z,12.53
2019-01-28T01:17:50.353Z,13.23
2019-01-28T01:20:53.926Z,12.40
2019-01-28T01:23:57.486Z,12.27
2019-01-28T01:27:01.472Z,12.20
2019-01-28T01:30:06.755Z,11.17
2019-01-28T01:33:10.326Z,10.27
2019-01-28T01:36:13.903Z,10.37
2019-01-28T01:39:17.456Z,9.70
2019-01-28T01:42:21.458Z,10.20
2019-01-28T01:45:25.024Z,9.40
2019-01-28T01:48:28.667Z,9.97
2019-01-28T01:51:32.321Z,11.13
2019-01-28T01:54:36.138Z,9.63
2019-01-28T01:57:39.980Z,9.23
2019-01-28T02:00:43.554Z,8.77
2019-01-28T02:03:47.106Z,9.00
2019-01-28T02:06:50.757Z,8.37
2019-01-28T02:09:54.331Z,8.73
2019-01-28T02:12:57.896Z,7.87
2019-01-28T02:16:02.010Z,7.90
2019-01-28T02:19:05.569Z,8.57
2019-01-28T02:22:09.215Z,7.90
2019-01-28T02:25:13.184Z,7.40
2019-01-28T02:28:16.982Z,8.30
2019-01-28T02:31:20.599Z,7.10
2019-01-28T02:34:24.167Z,6.93
2019-01-28T02:37:27.731Z,6.77
2019-01-28T02:40:31.291Z,6.30
2019-01-28T02:43:34.853Z,6.53
2019-01-28T02:46:38.420Z,6.60
2019-01-28T02:49:41.985Z,7.00
2019-01-28T02:52:46.035Z,6.33
2019-01-28T02:55:49.660Z,6.00
2019-01-28T02:58:53.205Z,6.77
2019-01-28T03:01:56.782Z,6.03
2019-01-28T03:05:00.502Z,5.37
2019-01-28T03:08:04.525Z,5.43
2019-01-28T03:11:10.437Z,5.43
2019-01-28T03:14:13.764Z,5.80
2019-01-28T03:17:17.356Z,5.20
2019-01-28T03:20:21.099Z,5.00
2019-01-28T03:23:26.219Z,5.17
2019-01-28T03:26:29.794Z,5.50
2019-01-28T03:29:33.353Z,5.20
2019-01-28T03:32:37.251Z,4.80
2019-01-28T03:35:40.872Z,4.77
2019-01-28T03:38:44.744Z,4.73
2019-01-28T03:41:48.293Z,5.20
2019-01-28T03:44:51.877Z,4.67
2019-01-28T03:47:55.552Z,4.53
2019-01-28T03:50:59.127Z,4.23
2019-01-28T03:54:02.761Z,3.93
2019-01-28T03:57:06.316Z,4.60
2019-01-28T04:00:13.509Z,3.90
2019-01-28T04:03:17.078Z,4.40
2019-01-28T04:06:20.876Z,3.97
2019-01-28T04:09:24.458Z,3.97
2019-01-28T04:12:28.395Z,4.43
2019-01-28T04:15:32.650Z,3.93
2019-01-28T04:18:36.313Z,3.93
2019-01-28T04:21:40.237Z,3.67
2019-01-28T04:24:44.090Z,3.67
2019-01-28T04:27:47.641Z,4.10
2019-01-28T04:30:51.507Z,3.50
2019-01-28T04:33:55.064Z,3.60
2019-01-28T04:36:58.617Z,3.37
2019-01-28T04:40:02.201Z,3.27
2019-01-28T04:43:05.838Z,3.87
2019-01-28T04:46:09.524Z,3.33
2019-01-28T04:49:13.098Z,3.40
2019-01-28T04:52:16.700Z,3.27
2019-01-28T04:55:20.341Z,3.33
2019-01-28T04:58:24.183Z,3.17
2019-01-28T05:01:27.739Z,2.93
2019-01-28T05:04:33.682Z,3.43
2019-01-28T05:07:37.188Z,2.90
2019-01-28T05:10:40.757Z,2.70
2019-01-28T05:13:44.474Z,2.90
2019-01-28T05:16:48.045Z,3.00
2019-01-28T05:19:52.094Z,3.10
2019-01-28T05:22:55.659Z,16.27
2019-01-28T05:25:59.243Z,21.93
2019-01-28T05:29:02.816Z,15.50
2019-01-28T05:32:06.544Z,11.70
2019-01-28T05:35:11.199Z,9.60
2019-01-28T05:38:14.766Z,9.07
2019-01-28T05:41:18.665Z,8.80
2019-01-28T05:44:22.217Z,7.73
2019-01-28T05:47:26.124Z,6.60
2019-01-28T05:50:29.967Z,24.97
2019-01-28T05:53:33.527Z,11.30
2019-01-28T05:56:37.088Z,9.77
2019-01-28T05:59:40.737Z,9.20
2019-01-28T06:02:44.612Z,9.70
2019-01-28T06:05:48.204Z,27.50
2019-01-28T06:08:51.763Z,57.40
2019-01-28T06:11:55.330Z,42.37
2019-01-28T06:14:59.235Z,42.63
2019-01-28T06:18:02.802Z,40.90
2019-01-28T06:21:06.377Z,37.03
2019-01-28T06:24:09.940Z,33.30
2019-01-28T06:27:13.532Z,32.30
2019-01-28T06:30:19.943Z,31.37
2019-01-28T06:33:23.559Z,27.80
2019-01-28T06:36:27.174Z,27.33
2019-01-28T06:39:30.733Z,25.90
2019-01-28T06:42:34.301Z,26.37
2019-01-28T06:45:37.900Z,24.90
2019-01-28T06:48:41.749Z,24.13
2019-01-28T06:51:45.330Z,22.50
2019-01-28T06:54:48.889Z,22.80
2019-01-28T06:57:52.473Z,21.07
2019-01-28T07:00:56.042Z,21.67
2019-01-28T07:03:59.614Z,19.53
2019-01-28T07:07:03.186Z,19.27
2019-01-28T07:10:07.447Z,18.80
2019-01-28T07:13:11.032Z,18.07
2019-01-28T07:16:14.608Z,17.13
2019-01-28T07:19:18.213Z,16.77
2019-01-28T07:22:21.857Z,15.93
2019-01-28T07:25:25.422Z,15.40
2019-01-28T07:28:29.302Z,15.47
2019-01-28T07:31:32.886Z,14.77
2019-01-28T07:34:36.793Z,14.67
2019-01-28T07:37:40.952Z,14.30
2019-01-28T07:40:44.612Z,13.73
2019-01-28T07:43:48.183Z,14.20
2019-01-28T07:46:52.071Z,12.50
2019-01-28T07:49:55.647Z,11.77
2019-01-28T07:52:59.225Z,12.00
2019-01-28T07:56:02.805Z,12.10
2019-01-28T07:59:06.446Z,11.53
2019-01-28T08:02:10.101Z,10.80
2019-01-28T08:05:14.545Z,10.83
2019-01-28T08:08:18.237Z,10.33
2019-01-28T08:11:21.817Z,10.80
2019-01-28T08:14:25.766Z,10.60
2019-01-28T08:17:29.398Z,9.63
2019-01-28T08:20:32.989Z,10.07
2019-01-28T08:23:36.573Z,9.57
2019-01-28T08:26:40.197Z,9.20
2019-01-28T08:29:43.762Z,9.00
2019-01-28T08:32:47.319Z,9.13
2019-01-28T08:35:51.138Z,8.87
2019-01-28T08:38:54.692Z,8.10
2019-01-28T08:41:58.267Z,8.90
2019-01-28T08:45:01.834Z,8.00
2019-01-28T08:48:05.651Z,8.10
2019-01-28T08:51:09.218Z,8.03
2019-01-28T08:54:12.900Z,8.07
2019-01-28T08:57:16.462Z,7.50
2019-01-28T09:00:25.564Z,7.27
2019-01-28T09:03:29.201Z,7.23
2019-01-28T09:06:32.765Z,6.70
2019-01-28T09:09:36.828Z,6.90
2019-01-28T09:12:40.422Z,6.70
2019-01-28T09:15:44.704Z,6.77
2019-01-28T09:18:48.261Z,6.53
2019-01-28T09:21:51.834Z,6.30
2019-01-28T09:24:55.421Z,6.77
2019-01-28T09:27:58.974Z,6.13
2019-01-28T09:31:02.619Z,6.00
2019-01-28T09:34:06.179Z,5.70
2019-01-28T09:37:09.821Z,6.20
2019-01-28T09:40:15.411Z,5.57
2019-01-28T09:43:19.259Z,5.57
2019-01-28T09:46:22.885Z,5.70
2019-01-28T09:49:26.528Z,5.17
2019-01-28T09:52:30.485Z,5.00
2019-01-28T09:55:34.046Z,5.20
2019-01-28T09:58:37.675Z,5.27
2019-01-28T10:01:41.250Z,4.90
2019-01-28T10:04:44.807Z,5.00
2019-01-28T10:07:48.380Z,4.57
2019-01-28T10:10:52.323Z,5.33
2019-01-28T10:13:56.344Z,4.60
2019-01-28T10:17:00.577Z,4.53
2019-01-28T10:20:05.789Z,4.33
2019-01-28T10:23:09.523Z,4.20
2019-01-28T10:26:13.115Z,4.20
2019-01-28T10:29:16.672Z,4.33
2019-01-28T10:32:20.796Z,4.50
2019-01-28T10:35:25.072Z,4.37
2019-01-28T10:38:28.637Z,3.83
2019-01-28T10:41:32.258Z,4.30
2019-01-28T10:44:35.806Z,3.93
2019-01-28T10:47:39.813Z,3.97
2019-01-28T10:50:44.338Z,3.70
2019-01-28T10:53:48.242Z,3.57
2019-01-28T10:56:51.808Z,3.37
2019-01-28T10:59:55.368Z,3.37
2019-01-28T11:02:59.358Z,3.43
2019-01-28T11:06:02.910Z,3.40
2019-01-28T11:09:08.067Z,3.60
2019-01-28T11:12:11.865Z,3.50
2019-01-28T11:15:18.568Z,3.43
2019-01-28T11:18:24.955Z,3.03
2019-01-28T11:21:28.556Z,3.43
2019-01-28T11:24:32.206Z,3.03
2019-01-28T11:27:35.940Z,3.37
2019-01-28T11:30:43.971Z,2.87
2019-01-28T11:33:47.542Z,2.90
2019-01-28T11:36:51.180Z,2.70
2019-01-28T11:39:55.297Z,2.87
2019-01-28T11:42:58.896Z,3.20
2019-01-28T11:46:05.004Z,2.90
2019-01-28T11:49:08.851Z,2.97
2019-01-28T11:52:12.455Z,2.90
2019-01-28T11:55:16.011Z,2.60
2019-01-28T11:58:19.591Z,2.67
2019-01-28T12:01:26.616Z,2.60
2019-01-28T12:04:30.195Z,2.60
2019-01-28T12:07:33.749Z,2.57
2019-01-28T12:10:37.383Z,2.50
2019-01-28T12:13:40.949Z,2.63
2019-01-28T12:16:44.502Z,2.70
2019-01-28T12:19:48.081Z,2.20
2019-01-28T12:22:51.864Z,2.53
2019-01-28T12:25:55.452Z,2.63
2019-01-28T12:28:59.096Z,2.50
2019-01-28T12:32:02.663Z,2.10
2019-01-28T12:35:07.510Z,2.70
2019-01-28T12:38:11.071Z,2.23
2019-01-28T12:41:17.452Z,2.23
2019-01-28T12:44:20.211Z,2.20
2019-01-28T12:47:23.777Z,2.30
2019-01-28T12:50:27.602Z,2.13
2019-01-28T12:53:31.175Z,1.97
2019-01-28T12:56:34.801Z,1.90
2019-01-28T12:59:38.400Z,2.20
2019-01-28T13:02:41.954Z,2.00
2019-01-28T13:05:45.663Z,1.90
2019-01-28T13:08:49.287Z,1.97
2019-01-28T13:11:52.842Z,2.10
2019-01-28T13:14:56.392Z,1.90
2019-01-28T13:18:00.429Z,1.87
2019-01-28T13:21:04.007Z,1.87
2019-01-28T13:24:07.566Z,1.90
2019-01-28T13:27:11.464Z,2.10
2019-01-28T13:30:17.546Z,1.80
2019-01-28T13:33:21.205Z,1.73
2019-01-28T13:36:24.787Z,1.97
2019-01-28T13:39:28.328Z,1.83
2019-01-28T13:42:31.897Z,1.77
2019-01-28T13:45:35.546Z,1.90
2019-01-28T13:48:39.116Z,2.00
2019-01-28T13:51:43.062Z,1.70
2019-01-28T13:54:46.636Z,1.70
2019-01-28T13:57:50.380Z,1.80
2019-01-28T14:00:54.001Z,1.80
2019-01-28T14:03:58.614Z,1.70
2019-01-28T14:07:02.341Z,1.60
2019-01-28T14:10:07.164Z,1.47
2019-01-28T14:13:10.756Z,1.67
2019-01-28T14:16:14.309Z,1.70
2019-01-28T14:19:17.870Z,1.50
2019-01-28T14:22:21.554Z,1.67
2019-01-28T14:25:25.282Z,1.70
2019-01-28T14:28:29.284Z,1.70
2019-01-28T14:31:32.860Z,1.60
2019-01-28T14:34:37.417Z,1.50
2019-01-28T14:37:40.990Z,1.60
2019-01-28T14:40:46.209Z,1.63
2019-01-28T14:43:49.777Z,1.50
2019-01-28T14:46:53.332Z,1.57
2019-01-28T14:49:57.006Z,1.30
2019-01-28T14:53:00.605Z,1.40
2019-01-28T14:56:04.223Z,1.30
2019-01-28T14:59:08.090Z,1.40
2019-01-28T15:02:11.738Z,1.33
2019-01-28T15:05:15.619Z,1.90
2019-01-28T15:08:19.188Z,1.43
2019-01-28T15:11:22.745Z,1.50
2019-01-28T15:14:26.305Z,1.23
2019-01-28T15:17:30.194Z,1.50
2019-01-28T15:20:33.834Z,1.57
2019-01-28T15:23:37.388Z,1.40
2019-01-28T15:26:40.973Z,1.40
2019-01-28T15:29:45.552Z,1.30
2019-01-28T15:32:49.766Z,1.50
2019-01-28T15:35:53.350Z,1.40
2019-01-28T15:38:56.918Z,1.27
2019-01-28T15:42:00.802Z,1.47
2019-01-28T15:45:11.315Z,1.33
2019-01-28T15:48:12.590Z,1.50
2019-01-28T15:51:16.189Z,1.57
2019-01-28T15:54:19.772Z,1.67
2019-01-28T15:57:23.394Z,1.30
2019-01-28T16:00:28.446Z,1.40
2019-01-28T16:03:32.011Z,1.40
2019-01-28T16:06:35.577Z,1.33
2019-01-28T16:09:39.136Z,1.60
2019-01-28T16:12:43.098Z,1.60
2019-01-28T16:15:48.761Z,1.70
2019-01-28T16:18:52.818Z,1.97
2019-01-28T16:21:56.466Z,1.70
2019-01-28T16:25:00.038Z,1.80
2019-01-28T16:28:04.068Z,1.97
2019-01-28T16:31:07.663Z,15.90
2019-01-28T16:34:11.247Z,22.77
2019-01-28T16:37:14.825Z,19.07
2019-01-28T16:40:19.965Z,27.97
2019-01-28T16:43:23.625Z,41.13
2019-01-28T16:46:27.515Z,28.83
2019-01-28T16:49:31.087Z,29.93
2019-01-28T16:52:35.686Z,28.10
2019-01-28T16:55:39.698Z,26.00
2019-01-28T16:58:43.341Z,22.20
2019-01-28T17:01:47.243Z,20.90
2019-01-28T17:04:50.809Z,19.80
2019-01-28T17:07:54.441Z,17.27
2019-01-28T17:10:58.089Z,16.07
2019-01-28T17:14:02.517Z,15.50
2019-01-28T17:17:06.090Z,14.20
2019-01-28T17:20:12.489Z,13.20
2019-01-28T17:23:16.067Z,12.53
2019-01-28T17:26:19.672Z,11.90
2019-01-28T17:29:23.235Z,10.97
2019-01-28T17:32:26.893Z,13.30
2019-01-28T17:35:30.539Z,24.90
2019-01-28T17:38:34.113Z,36.70
2019-01-28T17:41:37.700Z,55.27
2019-01-28T17:44:41.550Z,55.70
2019-01-28T17:47:45.225Z,50.07
2019-01-28T17:50:48.786Z,41.70
2019-01-28T17:53:52.361Z,36.90
2019-01-28T17:56:55.934Z,33.30
2019-01-28T17:59:59.506Z,31.70
2019-01-28T18:03:03.764Z,28.37
2019-01-28T18:06:07.331Z,25.87
2019-01-28T18:09:10.908Z,25.40
2019-01-28T18:12:14.477Z,24.53
2019-01-28T18:15:19.076Z,24.97
2019-01-28T18:18:22.923Z,43.57
2019-01-28T18:21:26.473Z,26.53
2019-01-28T18:24:30.297Z,75.43
2019-01-28T18:27:33.941Z,75.73
2019-01-28T18:30:43.824Z,78.87
2019-01-28T18:33:47.400Z,74.10
2019-01-28T18:36:50.978Z,74.13
2019-01-28T18:39:54.611Z,74.63
2019-01-28T18:42:58.219Z,70.10
2019-01-28T18:46:01.793Z,66.90
2019-01-28T18:49:05.835Z,66.73
2019-01-28T18:52:09.422Z,66.47
2019-01-28T18:55:13.439Z,63.53
2019-01-28T18:58:17.323Z,62.93
2019-01-28T19:01:20.879Z,61.80
2019-01-28T19:04:24.549Z,61.67
2019-01-28T19:07:42.114Z,58.97
2019-01-28T19:10:51.078Z,55.13
2019-01-28T19:14:07.239Z,52.60
2019-01-28T19:17:21.121Z,51.17
2019-01-28T19:20:29.441Z,48.63
2019-01-28T19:23:33.066Z,47.30
2019-01-28T19:26:36.660Z,46.87
2019-01-28T19:29:40.231Z,43.97
2019-01-28T19:32:44.213Z,43.23
2019-01-28T19:35:48.085Z,40.60
2019-01-28T19:38:51.774Z,14.33
2019-01-28T19:41:55.425Z,23.00
2019-01-28T19:44:58.995Z,50.47
2019-01-28T19:48:02.585Z,25.23
2019-01-28T19:51:06.884Z,60.53
2019-01-28T19:54:10.859Z,60.87
2019-01-28T19:57:14.441Z,62.33
2019-01-28T20:00:24.033Z,61.10
2019-01-28T20:03:27.899Z,58.47
2019-01-28T20:06:31.486Z,58.60
2019-01-28T20:09:35.067Z,56.80
2019-01-28T20:12:38.957Z,56.57
2019-01-28T20:15:42.581Z,54.37
2019-01-28T20:18:46.151Z,51.87
2019-01-28T20:21:49.734Z,53.40
2019-01-28T20:24:53.322Z,52.00
2019-01-28T20:27:57.278Z,50.50
2019-01-28T20:31:01.196Z,49.37
2019-01-28T20:34:06.074Z,48.83
2019-01-28T20:37:09.655Z,46.30
2019-01-28T20:40:13.420Z,46.03
2019-01-28T20:43:23.882Z,45.40
2019-01-28T20:46:22.334Z,44.90
2019-01-28T20:49:26.225Z,44.47
2019-01-28T20:52:29.753Z,43.80
2019-01-28T20:55:33.890Z,43.97
2019-01-28T20:58:38.162Z,43.97
2019-01-28T21:01:41.736Z,41.17
2019-01-28T21:04:45.586Z,40.13
2019-01-28T21:07:49.210Z,41.60
2019-01-28T21:10:52.887Z,38.83
2019-01-28T21:13:56.482Z,36.80
2019-01-28T21:17:00.085Z,37.80
2019-01-28T21:20:03.722Z,37.87
2019-01-28T21:23:07.295Z,38.23
2019-01-28T21:26:11.202Z,35.07
2019-01-28T21:29:14.836Z,35.83
2019-01-28T21:32:18.446Z,35.57
2019-01-28T21:35:37.634Z,36.73
2019-01-28T21:38:44.937Z,32.03
2019-01-28T21:41:48.518Z,30.53
2019-01-28T21:44:52.104Z,25.63
2019-01-28T21:47:55.687Z,24.27
2019-01-28T21:50:59.568Z,20.97
2019-01-28T21:54:03.462Z,19.10
2019-01-28T21:57:07.116Z,19.37
2019-01-28T22:00:10.812Z,43.53
2019-01-28T22:03:14.387Z,30.53
2019-01-28T22:06:18.032Z,12.43
2019-01-28T22:09:21.927Z,55.47
2019-01-28T22:12:25.869Z,69.97
2019-01-28T22:15:29.543Z,75.97
2019-01-28T22:18:33.471Z,72.13
2019-01-28T22:21:37.332Z,70.63
2019-01-28T22:24:41.159Z,29.33
2019-01-28T22:27:45.230Z,17.37
2019-01-28T22:30:48.823Z,54.53
2019-01-28T22:33:52.721Z,50.87
2019-01-28T22:36:56.295Z,47.07
2019-01-28T22:39:59.864Z,45.77
2019-01-28T22:43:03.699Z,45.50
2019-01-28T22:46:07.306Z,43.23
2019-01-28T22:49:11.387Z,43.60
2019-01-28T22:52:14.968Z,41.90
2019-01-28T22:55:20.418Z,40.07
2019-01-28T22:58:24.257Z,39.30
2019-01-28T23:01:38.197Z,36.90
2019-01-28T23:04:41.783Z,34.33
2019-01-28T23:07:45.348Z,30.57
2019-01-28T23:10:49.217Z,29.00
2019-01-28T23:13:53.157Z,27.87
2019-01-28T23:16:57.063Z,27.00
2019-01-28T23:20:00.619Z,25.33
2019-01-28T23:23:04.434Z,24.70
2019-01-28T23:26:08.067Z,24.33
2019-01-28T23:29:11.949Z,22.90
2019-01-28T23:32:15.512Z,22.47
2019-01-28T23:35:19.150Z,22.27
2019-01-28T23:38:22.719Z,21.53
2019-01-28T23:41:26.288Z,19.53
2019-01-28T23:44:29.841Z,20.47
2019-01-28T23:47:33.434Z,20.00
2019-01-28T23:50:37.353Z,18.63
2019-01-28T23:53:41.015Z,18.30
2019-01-28T23:56:44.588Z,18.20
2019-01-28T23:59:48.145Z,17.87
